Time;durP1;ratioP1;P1;durP2;ratioP2;P2;SDS_P1;SDS_P2;PMS_P1;PMS_P2;Temp;Humidity;BMP_temperature;BMP_pressure;BME280_temperature;BME280_humidity;BME280_pressure;Samples;Min_cycle;Max_cycle;Signal;HPM_P1;HPM_P2
2023/04/06 00:00:34;;;;;;;;;;;;;;;-1.45;100.00;100917.50;5055896;28;20376;-75
2023/04/06 00:02:59;;;;;;;;;;;;;;;-1.48;100.00;100909.91;5055788;28;19916;-75
2023/04/06 00:05:25;;;;;;;;;;;;;;;-1.49;100.00;100908.28;5055650;28;19912;-76
2023/04/06 00:07:50;;;;;;;;;;;;;;;-1.51;100.00;100907.09;5055644;28;19913;-76
2023/04/06 00:10:16;;;;;;;;;;;;;;;-1.54;100.00;100913.47;5055784;28;19912;-75
2023/04/06 00:12:41;;;;;;;;;;;;;;;-1.56;100.00;100913.91;5055954;28;19916;-75
2023/04/06 00:15:07;;;;;;;;;;;;;;;-1.61;100.00;100917.06;5055591;28;19913;-74
2023/04/06 00:17:32;;;;;;;;;;;;;;;-1.63;100.00;100913.84;5055433;28;19939;-75
2023/04/06 00:19:57;;;;;;;;;;;;;;;-1.64;100.00;100906.63;5037984;28;19912;-77
2023/04/06 00:22:23;;;;;;;;;;;;;;;-1.65;100.00;100911.44;5055817;28;19920;-76
2023/04/06 00:24:48;;;;;;;;;;;;;;;-1.65;100.00;100914.25;5055424;28;20263;-75
2023/04/06 00:27:13;;;;;;;;;;;;;;;-1.64;100.00;100906.63;5055252;28;19917;-73
2023/04/06 00:29:39;;;;;;;;;;;;;;;-1.64;100.00;100909.44;5055160;28;19999;-76
2023/04/06 00:32:05;;;;;;;;;;;;;;;-1.65;100.00;100905.84;5053998;28;20320;-75
2023/04/06 00:34:30;;;;;;;;;;;;;;;-1.66;100.00;100897.84;5052887;28;19923;-74
2023/04/06 00:36:55;;;;;;;;;;;;;;;-1.68;100.00;100903.03;5018937;28;19967;-75
2023/04/06 00:39:21;;;;;;;;;;;;;;;-1.70;100.00;100899.81;5035300;28;19924;-74
2023/04/06 00:41:48;;;;;;;;;;;;;;;-1.74;100.00;100899.81;5053281;28;19963;-74
2023/04/06 00:44:13;;;;;;;;;;;;;;;-1.76;100.00;100893.81;5052628;28;20469;-74
2023/04/06 00:46:39;;;;;;;;;;;;;;;-1.76;100.00;100904.22;5052726;28;20417;-74
2023/04/06 00:49:04;;;;;;;;;;;;;;;-1.82;100.00;100903.78;5053430;28;19919;-75
2023/04/06 00:51:29;;;;;;;;;;;;;;;-1.86;100.00;100902.97;5053018;28;19913;-73
2023/04/06 00:53:55;;;;;;;;;;;;;;;-1.87;100.00;100898.56;5052776;28;20262;-74
2023/04/06 00:56:21;;;;;;;;;;;;;;;-1.91;100.00;100911.75;5052741;28;19935;-77
2023/04/06 00:58:46;;;;;;;;;;;;;;;-1.96;100.00;100898.13;5052998;28;19913;-77
2023/04/06 01:01:11;;;;;;;;;;;;;;;-1.97;100.00;100901.31;5053263;28;20328;-75
2023/04/06 01:03:37;;;;;;;;;;;;;;;-2.00;100.00;100911.31;5053665;28;19916;-76
2023/04/06 01:06:02;;;;;;;;;;;;;;;-2.03;100.00;100904.47;5054713;28;19916;-76
2023/04/06 01:08:27;;;;;;;;;;;;;;;-2.05;100.00;100912.47;5054479;28;19913;-76
2023/04/06 01:10:53;;;;;;;;;;;;;;;-2.07;100.00;100914.88;5036810;28;19981;-75
2023/04/06 01:13:21;;;;;;;;;;;;;;;-2.04;100.00;100919.66;5020185;28;21352;-76
2023/04/06 01:15:46;;;;;;;;;;;;;;;-2.03;100.00;100909.28;5036713;28;19913;-76
2023/04/06 01:18:11;;;;;;;;;;;;;;;-2.04;100.00;100907.66;5054399;28;19912;-76
2023/04/06 01:20:37;;;;;;;;;;;;;;;-2.07;100.00;100906.47;5054440;28;20373;-76
2023/04/06 01:23:02;;;;;;;;;;;;;;;-2.09;100.00;100913.63;5054529;28;19913;-77
2023/04/06 01:25:27;;;;;;;;;;;;;;;-2.12;100.00;100906.03;5036420;28;20333;-78
2023/04/06 01:27:53;;;;;;;;;;;;;;;-2.16;100.00;100908.81;5054352;28;19913;-77
2023/04/06 01:30:18;;;;;;;;;;;;;;;-2.17;100.00;100909.19;5054526;28;19919;-77
2023/04/06 01:32:43;;;;;;;;;;;;;;;-2.19;100.00;100909.59;5054073;28;19963;-78
2023/04/06 01:35:09;;;;;;;;;;;;;;;-2.19;100.00;100906.78;5054238;28;20414;-77
2023/04/06 01:37:34;;;;;;;;;;;;;;;-2.21;100.00;100903.59;5054088;28;19920;-77
2023/04/06 01:40:00;;;;;;;;;;;;;;;-2.21;100.00;100908.38;5054286;28;19990;-77
2023/04/06 01:42:26;;;;;;;;;;;;;;;-2.20;100.00;100904.41;5053971;28;20299;-77
2023/04/06 01:44:52;;;;;;;;;;;;;;;-2.23;100.00;100900.38;5054026;28;19920;-76
2023/04/06 01:47:17;;;;;;;;;;;;;;;-2.24;100.00;100895.97;5036008;28;20134;-76
2023/04/06 01:49:42;;;;;;;;;;;;;;;-2.27;100.00;100901.53;5035907;28;19913;-77
2023/04/06 01:52:07;;;;;;;;;;;;;;;-2.31;100.00;100892.34;5054128;28;19942;-78
2023/04/06 01:54:33;;;;;;;;;;;;;;;-2.35;100.00;100897.09;5054058;28;19917;-77
2023/04/06 01:56:58;;;;;;;;;;;;;;;-2.39;100.00;100908.25;5053662;28;20362;-74
2023/04/06 01:59:24;;;;;;;;;;;;;;;-2.40;100.00;100915.06;5053646;28;20003;-74
2023/04/06 02:01:49;;;;;;;;;;;;;;;-2.42;100.00;100899.84;5035878;28;19952;-73
2023/04/06 02:04:15;;;;;;;;;;;;;;;-2.46;100.00;100909.03;5053539;28;19930;-74
2023/04/06 02:06:40;;;;;;;;;;;;;;;-2.48;100.00;100905.81;5053758;28;20274;-74
2023/04/06 02:09:05;;;;;;;;;;;;;;;-2.50;100.00;100904.59;5035569;28;19913;-74
2023/04/06 02:11:31;;;;;;;;;;;;;;;-2.52;100.00;100902.19;5053451;28;19936;-76
2023/04/06 02:13:56;;;;;;;;;;;;;;;-2.54;100.00;100898.97;5053445;28;19920;-76
2023/04/06 02:16:21;;;;;;;;;;;;;;;-2.53;100.00;100894.19;5053765;28;20270;-75
2023/04/06 02:18:47;;;;;;;;;;;;;;;-2.55;100.00;100891.78;5053497;28;19917;-75
2023/04/06 02:21:12;;;;;;;;;;;;;;;-2.55;100.00;100902.19;5053659;28;20312;-75
2023/04/06 02:23:37;;;;;;;;;;;;;;;-2.55;100.00;100902.19;5053532;28;19920;-74
2023/04/06 02:26:03;;;;;;;;;;;;;;;-2.57;100.00;100893.34;5053229;28;19960;-73
2023/04/06 02:28:28;;;;;;;;;;;;;;;-2.57;100.00;100901.75;5035327;28;19913;-74
2023/04/06 02:30:53;;;;;;;;;;;;;;;-2.58;100.00;100892.56;5035390;28;19912;-76
2023/04/06 02:33:19;;;;;;;;;;;;;;;-2.59;100.00;100898.53;5035480;28;19917;-75
2023/04/06 02:35:45;;;;;;;;;;;;;;;-2.59;100.00;100898.53;5038656;28;19917;-74
2023/04/06 02:38:10;;;;;;;;;;;;;;;-2.60;100.00;100902.53;5056696;28;20374;-73
2023/04/06 02:40:35;;;;;;;;;;;;;;;-2.62;100.00;100902.13;5022393;28;19913;-75
2023/04/06 02:43:01;;;;;;;;;;;;;;;-2.63;100.00;100894.91;5034190;28;19921;-73
2023/04/06 02:45:26;;;;;;;;;;;;;;;-2.62;100.00;100907.69;5033928;28;20377;-74
2023/04/06 02:47:51;;;;;;;;;;;;;;;-2.65;100.00;100917.69;5033877;28;20263;-74
2023/04/06 02:50:17;;;;;;;;;;;;;;;-2.69;100.00;100916.84;5033534;28;20314;-74
2023/04/06 02:52:42;;;;;;;;;;;;;;;-2.69;100.00;100910.47;5033451;28;20016;-73
2023/04/06 02:55:08;;;;;;;;;;;;;;;-2.69;100.00;100919.63;5033112;28;19953;-74
2023/04/06 02:57:33;;;;;;;;;;;;;;;-2.68;100.00;100917.63;5032102;28;19944;-74
2023/04/06 02:59:58;;;;;;;;;;;;;;;-2.66;100.00;100929.25;5033229;28;20298;-73
2023/04/06 03:02:24;;;;;;;;;;;;;;;-2.66;100.00;100923.66;5031748;28;20385;-74
2023/04/06 03:04:49;;;;;;;;;;;;;;;-2.64;100.00;100921.28;5033002;28;19932;-74
2023/04/06 03:07:15;;;;;;;;;;;;;;;-2.62;100.00;100916.09;5032715;28;19921;-73
2023/04/06 03:09:40;;;;;;;;;;;;;;;-2.59;100.00;100927.31;5036160;28;19917;-75
2023/04/06 03:12:05;;;;;;;;;;;;;;;-2.58;100.00;100928.91;5039658;28;19913;-75
2023/04/06 03:14:31;;;;;;;;;;;;;;;-2.57;100.00;100927.72;5036853;28;19928;-75
2023/04/06 03:16:56;;;;;;;;;;;;;;;-2.56;100.00;100929.34;5037000;28;19913;-74
2023/04/06 03:19:21;;;;;;;;;;;;;;;-2.55;100.00;100925.34;5037246;28;20395;-73
2023/04/06 03:21:47;;;;;;;;;;;;;;;-2.54;100.00;100937.31;5035430;28;20259;-73
2023/04/06 03:24:13;;;;;;;;;;;;;;;-2.54;100.00;100931.72;5036934;28;20283;-75
2023/04/06 03:26:38;;;;;;;;;;;;;;;-2.54;100.00;100929.75;5035256;28;19924;-75
2023/04/06 03:29:05;;;;;;;;;;;;;;;-2.54;100.00;100931.72;5036700;28;19913;-74
2023/04/06 03:31:30;;;;;;;;;;;;;;;-2.54;100.00;100932.53;5035580;28;19921;-74
2023/04/06 03:33:56;;;;;;;;;;;;;;;-2.54;100.00;100940.94;5035210;28;20363;-74
2023/04/06 03:36:21;;;;;;;;;;;;;;;-2.54;100.00;100945.72;5036380;28;19920;-73
2023/04/06 03:38:46;;;;;;;;;;;;;;;-2.55;100.00;100944.13;5036496;28;19959;-74
2023/04/06 03:41:12;;;;;;;;;;;;;;;-2.55;100.00;100942.13;5036648;28;20297;-74
2023/04/06 03:43:37;;;;;;;;;;;;;;;-2.54;100.00;100945.72;5045653;28;19920;-74
2023/04/06 03:46:02;;;;;;;;;;;;;;;-2.51;100.00;100950.56;5056098;28;19963;-75
2023/04/06 03:48:28;;;;;;;;;;;;;;;-2.45;100.00;100954.59;5056370;28;20278;-74
2023/04/06 03:50:53;;;;;;;;;;;;;;;-2.38;100.00;100954.63;5038645;28;20393;-75
2023/04/06 03:53:19;;;;;;;;;;;;;;;-2.33;100.00;100959.06;5056212;28;19924;-74
2023/04/06 03:55:44;;;;;;;;;;;;;;;-2.32;100.00;100957.88;5038218;28;20374;-77
2023/04/06 03:58:09;;;;;;;;;;;;;;;-2.33;100.00;100943.09;5056058;28;19917;-75
2023/04/06 04:00:35;;;;;;;;;;;;;;;-2.33;100.00;100954.28;5038083;28;19913;-74
2023/04/06 04:03:01;;;;;;;;;;;;;;;-2.33;100.00;100961.88;5055821;28;19913;-73
2023/04/06 04:05:27;;;;;;;;;;;;;;;-2.33;100.00;100962.66;5056025;28;19989;-75
2023/04/06 04:07:52;;;;;;;;;;;;;;;-2.37;100.00;100959.06;5055678;28;20414;-75
2023/04/06 04:10:17;;;;;;;;;;;;;;;-2.38;100.00;100957.44;5038014;28;19917;-74
2023/04/06 04:12:43;;;;;;;;;;;;;;;-2.40;100.00;100954.25;5021580;28;19966;-75
2023/04/06 04:15:08;;;;;;;;;;;;;;;-2.40;100.00;100956.22;5055953;28;20004;-75
2023/04/06 04:17:33;;;;;;;;;;;;;;;-2.38;100.00;100956.63;5069612;28;19969;-75
2023/04/06 04:19:59;;;;;;;;;;;;;;;-2.38;100.00;100954.63;5075547;28;20247;-76
2023/04/06 04:22:24;;;;;;;;;;;;;;;-2.39;100.00;100953.03;5076323;28;20369;-76
2023/04/06 04:24:49;;;;;;;;;;;;;;;-2.39;100.00;100958.63;5057616;28;19923;-75
2023/04/06 04:27:15;;;;;;;;;;;;;;;-2.36;100.00;100968.25;5040633;28;19930;-74
2023/04/06 04:29:43;;;;;;;;;;;;;;;-2.34;100.00;100960.25;5074388;28;19982;-75
2023/04/06 04:32:08;;;;;;;;;;;;;;;-2.27;100.00;100957.53;5054701;28;19970;-76
2023/04/06 04:34:34;;;;;;;;;;;;;;;-2.16;100.00;100961.19;5053181;28;19921;-75
2023/04/06 04:36:59;;;;;;;;;;;;;;;-2.15;100.00;100941.19;5053447;28;19917;-75
2023/04/06 04:39:25;;;;;;;;;;;;;;;-1.91;100.00;100950.94;5053040;28;19912;-74
2023/04/06 04:41:50;;;;;;;;;;;;;;;-1.76;100.00;100951.81;5053234;28;19913;-74
2023/04/06 04:44:15;;;;;;;;;;;;;;;-1.83;100.00;100916.19;5053588;28;20340;-74
2023/04/06 04:46:42;;;;;;;;;;;;;;;-1.51;100.00;100947.13;5061866;28;19916;-75
2023/04/06 04:49:08;;;;;;;;;;;;;;;-1.42;100.00;100952.38;5055148;28;19913;-75
2023/04/06 04:51:36;;;;;;;;;;;;;;;-1.32;100.00;100960.00;5020574;28;19963;-75
2023/04/06 04:54:01;;;;;;;;;;;;;;;-1.22;100.00;100956.44;5055112;28;19920;-75
2023/04/06 04:56:27;;;;;;;;;;;;;;;-1.05;100.00;100957.66;5049640;28;19913;-73
2023/04/06 04:58:52;;;;;;;;;;;;;;;-0.85;100.00;100956.09;5034746;28;20289;-73
2023/04/06 05:01:18;;;;;;;;;;;;;;;-0.65;100.00;100959.31;5008517;28;20011;-73
2023/04/06 05:03:43;;;;;;;;;;;;;;;-0.54;100.00;100966.53;5024401;28;19921;-75
2023/04/06 05:06:08;;;;;;;;;;;;;;;-0.41;100.00;100964.13;5034367;28;19963;-72
2023/04/06 05:08:34;;;;;;;;;;;;;;;-0.34;100.00;100958.50;5034060;28;19913;-72
2023/04/06 05:11:00;;;;;;;;;;;;;;;-0.20;100.00;100958.50;5038023;28;20312;-73
2023/04/06 05:13:25;;;;;;;;;;;;;;;-0.04;100.00;100961.69;5056692;28;19908;-71
2023/04/06 05:15:50;;;;;;;;;;;;;;;-0.03;100.00;100957.69;5055409;28;19996;-72
2023/04/06 05:18:16;;;;;;;;;;;;;;;-0.05;100.00;100957.25;5056035;28;19918;-73
2023/04/06 05:20:42;;;;;;;;;;;;;;;-0.14;100.00;100958.88;5074349;28;19920;-73
2023/04/06 05:23:08;;;;;;;;;;;;;;;-0.14;100.00;100964.50;5073586;28;19920;-73
2023/04/06 05:25:35;;;;;;;;;;;;;;;-0.18;100.00;100960.91;5056470;28;19912;-73
2023/04/06 05:28:01;;;;;;;;;;;;;;;-0.06;100.00;100969.69;5056275;28;19939;-76
2023/04/06 05:30:27;;;;;;;;;;;;;;;0.05;100.00;100970.50;5073990;28;20361;-73
2023/04/06 05:32:53;;;;;;;;;;;;;;;0.17;100.00;100975.66;5070974;28;19913;-76
2023/04/06 05:35:20;;;;;;;;;;;;;;;0.10;100.00;100978.50;5056017;28;19912;-76
2023/04/06 05:37:47;;;;;;;;;;;;;;;0.32;100.00;100973.59;5074140;28;19913;-77
2023/04/06 05:40:12;;;;;;;;;;;;;;;0.63;100.00;100971.09;5073122;28;19912;-76
2023/04/06 05:42:38;;;;;;;;;;;;;;;0.92;100.00;100975.34;5071460;28;19923;-77
2023/04/06 05:45:04;;;;;;;;;;;;;;;1.26;100.00;100976.34;5072054;28;19913;-77
2023/04/06 05:47:30;;;;;;;;;;;;;;;1.53;100.00;100970.13;5071567;28;19924;-77
2023/04/06 05:49:55;;;;;;;;;;;;;;;1.67;100.00;100972.81;5071861;28;20030;-76
2023/04/06 05:52:20;;;;;;;;;;;;;;;1.76;100.00;100973.13;5051525;28;19917;-77
2023/04/06 05:54:46;;;;;;;;;;;;;;;1.82;100.00;100975.09;5042147;28;19921;-78
2023/04/06 05:57:11;;;;;;;;;;;;;;;1.85;100.00;100971.44;5041629;28;19974;-78
2023/04/06 05:59:36;;;;;;;;;;;;;;;1.86;100.00;100973.03;5005928;28;20003;-77
2023/04/06 06:02:02;;;;;;;;;;;;;;;1.79;100.00;100969.50;5018082;28;19917;-76
2023/04/06 06:04:27;;;;;;;;;;;;;;;1.74;100.00;100969.94;5038127;28;19920;-75
2023/04/06 06:06:54;;;;;;;;;;;;;;;1.72;100.00;100966.75;5016191;28;20016;-76
2023/04/06 06:09:20;;;;;;;;;;;;;;;1.72;100.00;100963.91;5034645;28;20200;-80
2023/04/06 06:11:48;;;;;;;;;;;;;;;1.74;100.00;100975.59;5034258;28;19913;-75
2023/04/06 06:14:15;;;;;;;;;;;;;;;1.72;100.00;100964.72;5045725;28;20000;-74
2023/04/06 06:16:41;;;;;;;;;;;;;;;1.74;100.00;100978.41;5053873;28;19924;-75
2023/04/06 06:19:07;;;;;;;;;;;;;;;1.79;100.00;100963.88;5053302;28;19923;-76
2023/04/06 06:21:33;;;;;;;;;;;;;;;1.87;100.00;100971.03;5034899;28;20012;-74
2023/04/06 06:23:59;;;;;;;;;;;;;;;2.13;100.00;100973.19;5052809;28;19913;-76
2023/04/06 06:26:25;;;;;;;;;;;;;;;3.59;100.00;100966.38;5051198;28;19923;-76
2023/04/06 06:28:51;;;;;;;;;;;;;;;5.42;100.00;100961.06;5053109;28;20281;-75
2023/04/06 06:31:20;;;;;;;;;;;;;;;7.24;100.00;100963.34;5035866;28;20359;-75
2023/04/06 06:33:50;;;;;;;;;;;;;;;8.99;100.00;100954.00;5053686;28;19939;-75
2023/04/06 06:36:16;;;;;;;;;;;;;;;10.89;100.00;100962.19;5053949;28;19960;-73
2023/04/06 06:38:42;;;;;;;;;;;;;;;12.72;95.43;100967.78;5057028;28;20447;-73
2023/04/06 06:41:09;;;;;;;;;;;;;;;13.99;79.83;100986.41;5057238;28;19912;-74
2023/04/06 06:43:42;;;;;;;;;;;;;;;14.85;64.61;100990.69;5073791;28;19929;-72
2023/04/06 06:46:10;;;;;;;;;;;;;;;15.61;54.82;100991.22;5074426;28;19916;-74
2023/04/06 06:48:35;;;;;;;;;;;;;;;16.49;48.62;100995.94;5076353;28;19912;-75
2023/04/06 06:51:01;;;;;;;;;;;;;;;17.31;47.66;100985.19;5076886;28;20016;-76
2023/04/06 06:53:27;;;;;;;;;;;;;;;18.18;44.84;100987.75;5056287;28;19917;-79
2023/04/06 06:55:53;;;;;;;;;;;;;;;19.03;41.96;100981.91;5055580;28;19935;-76
2023/04/06 06:58:22;;;;;;;;;;;;;;;19.88;39.15;100979.94;5073811;28;19913;-76
2023/04/06 07:00:48;;;;;;;;;;;;;;;20.76;36.79;100981.09;5072865;28;19927;-75
2023/04/06 07:03:16;;;;;;;;;;;;;;;21.54;35.27;100968.31;5076231;28;19912;-76
2023/04/06 07:05:52;;;;;;;;;;;;;;;22.08;34.23;100975.81;5057382;28;19912;-77
2023/04/06 07:08:21;;;;;;;;;;;;;;;22.63;33.66;100971.03;5056914;28;19916;-77
2023/04/06 07:10:50;;;;;;;;;;;;;;;22.72;30.22;100961.03;5055763;28;19923;-76
2023/04/06 07:13:22;;;;;;;;;;;;;;;21.90;30.93;100960.03;5074030;28;19912;-76
2023/04/06 07:15:49;;;;;;;;;;;;;;;21.22;31.79;100968.28;5056739;28;19921;-76
2023/04/06 07:18:16;;;;;;;;;;;;;;;21.79;32.36;100959.44;5056007;28;20008;-77
2023/04/06 07:20:43;;;;;;;;;;;;;;;22.75;32.20;100975.28;5055660;28;19916;-78
2023/04/06 07:23:10;;;;;;;;;;;;;;;23.57;28.79;100970.25;5055369;28;19974;-79
2023/04/06 07:25:37;;;;;;;;;;;;;;;23.98;29.78;100969.44;5072921;28;19912;-76
2023/04/06 07:28:03;;;;;;;;;;;;;;;24.29;29.37;100974.19;5055483;28;20353;-77
2023/04/06 07:30:28;;;;;;;;;;;;;;;24.79;28.31;100974.88;5055701;28;19924;-79
2023/04/06 07:32:59;;;;;;;;;;;;;;;25.15;27.13;100963.91;5073114;28;20291;-76
2023/04/06 07:35:26;;;;;;;;;;;;;;;25.58;26.36;100965.22;5073319;28;19912;-76
2023/04/06 07:37:52;;;;;;;;;;;;;;;25.90;26.56;100965.41;5055390;28;19963;-76
2023/04/06 07:40:19;;;;;;;;;;;;;;;26.20;26.12;100965.44;5055162;28;19916;-76
2023/04/06 07:42:44;;;;;;;;;;;;;;;26.12;25.04;100966.81;5072582;28;19912;-76
2023/04/06 07:45:10;;;;;;;;;;;;;;;26.12;25.42;100960.97;5054655;28;20014;-78
2023/04/06 07:47:36;;;;;;;;;;;;;;;26.12;25.14;100966.81;5072438;28;20023;-77
2023/04/06 07:50:02;;;;;;;;;;;;;;;25.40;24.15;100970.81;5072439;28;20455;-76
2023/04/06 07:52:30;;;;;;;;;;;;;;;25.04;24.18;100967.97;5072033;28;19913;-76
2023/04/06 07:54:56;;;;;;;;;;;;;;;24.64;23.30;100958.78;5073947;28;19912;-77
2023/04/06 07:57:22;;;;;;;;;;;;;;;24.41;24.61;100957.91;5076604;28;19983;-76
2023/04/06 07:59:47;;;;;;;;;;;;;;;24.91;24.20;100955.63;5057983;28;19916;-79
2023/04/06 08:02:12;;;;;;;;;;;;;;;25.32;22.17;100964.16;5075580;28;19912;-74
2023/04/06 08:04:37;;;;;;;;;;;;;;;25.55;22.35;100951.72;5076123;28;20389;-76
2023/04/06 08:07:03;;;;;;;;;;;;;;;26.03;20.41;100959.34;5075003;28;19974;-74
2023/04/06 08:09:29;;;;;;;;;;;;;;;26.30;20.83;100939.22;5075891;28;19913;-72
2023/04/06 08:11:56;;;;;;;;;;;;;;;26.48;20.60;100934.28;5075641;28;20419;-72
2023/04/06 08:14:22;;;;;;;;;;;;;;;26.15;20.01;100942.19;5075685;28;19982;-71
2023/04/06 08:16:50;;;;;;;;;;;;;;;25.78;21.05;100946.66;5075669;28;20369;-73
2023/04/06 08:19:18;;;;;;;;;;;;;;;24.71;20.51;100950.66;5075593;28;20124;-71
2023/04/06 08:21:51;;;;;;;;;;;;;;;24.04;20.24;100946.72;5082388;28;19950;-74
2023/04/06 08:24:16;;;;;;;;;;;;;;;22.45;21.98;100937.78;5075888;28;19962;-76
2023/04/06 08:26:41;;;;;;;;;;;;;;;22.34;22.38;100940.13;5075091;28;19955;-73
2023/04/06 08:29:07;;;;;;;;;;;;;;;22.91;23.09;100933.34;5074853;28;20319;-75
2023/04/06 08:31:34;;;;;;;;;;;;;;;23.40;23.08;100941.47;5075389;28;19970;-77
2023/04/06 08:34:03;;;;;;;;;;;;;;;23.57;21.71;100950.59;5072054;28;20003;-75
2023/04/06 08:36:29;;;;;;;;;;;;;;;23.62;20.84;100946.75;5057883;28;19917;-76
2023/04/06 08:38:54;;;;;;;;;;;;;;;22.78;20.67;100947.94;5074611;28;20230;-77
2023/04/06 08:41:21;;;;;;;;;;;;;;;21.17;21.10;100950.94;5075586;28;20305;-75
2023/04/06 08:43:48;;;;;;;;;;;;;;;20.22;22.01;100942.69;5074363;28;19969;-74
2023/04/06 08:46:14;;;;;;;;;;;;;;;19.90;22.93;100934.56;5057105;28;19917;-75
2023/04/06 08:48:40;;;;;;;;;;;;;;;19.58;23.55;100945.16;5057707;28;20051;-75
2023/04/06 08:51:07;;;;;;;;;;;;;;;19.44;23.87;100932.63;5075014;28;19974;-76
2023/04/06 08:53:33;;;;;;;;;;;;;;;19.17;24.15;100941.53;5057122;28;20015;-77
2023/04/06 08:55:59;;;;;;;;;;;;;;;18.53;24.93;100947.41;5074675;28;20045;-75
2023/04/06 08:58:26;;;;;;;;;;;;;;;19.03;24.58;100943.44;5056209;28;19916;-75
2023/04/06 09:00:51;;;;;;;;;;;;;;;19.74;25.43;100952.13;5072612;28;20383;-75
2023/04/06 09:03:17;;;;;;;;;;;;;;;19.67;23.65;100952.72;5055309;28;19974;-75
2023/04/06 09:05:42;;;;;;;;;;;;;;;18.88;24.48;100948.81;5072388;28;19940;-76
2023/04/06 09:08:08;;;;;;;;;;;;;;;18.72;25.08;100950.50;5054812;28;20192;-74
2023/04/06 09:10:34;;;;;;;;;;;;;;;19.09;25.73;100945.00;5072610;28;19912;-75
2023/04/06 09:13:02;;;;;;;;;;;;;;;19.31;25.09;100949.09;5072375;28;20412;-74
2023/04/06 09:15:28;;;;;;;;;;;;;;;19.18;25.15;100943.91;5072226;28;19922;-73
2023/04/06 09:17:54;;;;;;;;;;;;;;;18.67;24.88;100948.44;5072533;28;20249;-74
2023/04/06 09:20:27;;;;;;;;;;;;;;;18.36;25.60;100943.81;5072333;28;19932;-75
2023/04/06 09:22:53;;;;;;;;;;;;;;;17.94;24.93;100935.50;5073201;28;19916;-75
2023/04/06 09:25:19;;;;;;;;;;;;;;;17.51;25.20;100929.25;5074388;28;19913;-75
2023/04/06 09:27:44;;;;;;;;;;;;;;;17.18;26.75;100935.81;5074189;28;19931;-74
2023/04/06 09:30:13;;;;;;;;;;;;;;;17.10;26.37;100935.53;5074331;28;19916;-75
2023/04/06 09:32:48;;;;;;;;;;;;;;;16.93;26.49;100926.84;5074269;28;20003;-77
2023/04/06 09:35:14;;;;;;;;;;;;;;;16.72;26.70;100927.59;5074064;28;20203;-76
2023/04/06 09:37:39;;;;;;;;;;;;;;;16.13;27.04;100937.81;5074183;28;19958;-75
2023/04/06 09:40:05;;;;;;;;;;;;;;;15.32;27.55;100931.72;5056298;28;20353;-74
2023/04/06 09:42:31;;;;;;;;;;;;;;;15.41;28.28;100934.44;5073832;28;19916;-74
2023/04/06 09:44:56;;;;;;;;;;;;;;;15.84;27.68;100938.19;5052656;28;20231;-75
2023/04/06 09:47:22;;;;;;;;;;;;;;;15.46;27.88;100927.16;5054204;28;19917;-78
2023/04/06 09:49:48;;;;;;;;;;;;;;;15.14;28.57;100932.09;5052869;28;20294;-75
2023/04/06 09:52:13;;;;;;;;;;;;;;;14.47;29.51;100931.41;5036162;28;19913;-74
2023/04/06 09:54:38;;;;;;;;;;;;;;;14.33;29.80;100930.16;5052786;28;19913;-75
2023/04/06 09:57:08;;;;;;;;;;;;;;;14.28;29.93;100933.75;5052435;28;19913;-76
2023/04/06 09:59:42;;;;;;;;;;;;;;;14.16;30.31;100928.38;5054348;28;19962;-76
2023/04/06 10:02:08;;;;;;;;;;;;;;;13.90;30.50;100931.16;5053693;28;20358;-75
2023/04/06 10:04:40;;;;;;;;;;;;;;;13.70;30.32;100936.88;5052633;28;19962;-76
2023/04/06 10:07:05;;;;;;;;;;;;;;;13.21;30.38;100932.66;5053843;28;19921;-75
2023/04/06 10:09:35;;;;;;;;;;;;;;;12.82;29.71;100934.06;5053471;28;19924;-76
2023/04/06 10:12:02;;;;;;;;;;;;;;;12.72;30.92;100939.09;5052469;28;19917;-76
2023/04/06 10:14:27;;;;;;;;;;;;;;;12.67;30.78;100931.19;5052713;28;19944;-77
2023/04/06 10:16:53;;;;;;;;;;;;;;;12.61;30.81;100927.41;5053684;28;20293;-76
2023/04/06 10:19:25;;;;;;;;;;;;;;;12.38;31.57;100922.53;5053934;28;19967;-76
2023/04/06 10:21:51;;;;;;;;;;;;;;;12.15;31.84;100941.31;5052588;28;20012;-77
2023/04/06 10:24:17;;;;;;;;;;;;;;;12.26;33.44;100925.13;5052213;28;19983;-76
2023/04/06 10:26:42;;;;;;;;;;;;;;;12.52;33.04;100919.69;5053435;28;19942;-76
2023/04/06 10:29:07;;;;;;;;;;;;;;;12.90;32.44;100926.66;5052106;28;19913;-76
2023/04/06 10:31:33;;;;;;;;;;;;;;;13.28;32.45;100923.66;5053639;28;19912;-78
2023/04/06 10:33:59;;;;;;;;;;;;;;;13.31;31.08;100924.75;5053595;28;19919;-78
2023/04/06 10:36:26;;;;;;;;;;;;;;;13.06;31.17;100920.41;5052233;28;20067;-77
2023/04/06 10:38:56;;;;;;;;;;;;;;;12.65;32.42;100911.59;5053599;28;19912;-76
2023/04/06 10:41:21;;;;;;;;;;;;;;;12.51;32.60;100912.38;5053734;28;19916;-75
2023/04/06 10:43:54;;;;;;;;;;;;;;;12.36;32.62;100914.41;5063612;28;20023;-77
2023/04/06 10:46:24;;;;;;;;;;;;;;;11.94;32.24;100913.75;5079171;28;19916;-75
2023/04/06 10:48:50;;;;;;;;;;;;;;;11.75;32.83;100913.88;5079631;28;20431;-75
2023/04/06 10:51:16;;;;;;;;;;;;;;;11.22;32.94;100910.03;5080383;28;19912;-77
2023/04/06 10:53:42;;;;;;;;;;;;;;;11.11;34.33;100909.69;5077574;28;19924;-77
2023/04/06 10:56:14;;;;;;;;;;;;;;;10.89;34.75;100910.72;5081841;28;19912;-77
2023/04/06 10:58:52;;;;;;;;;;;;;;;10.80;34.63;100913.59;5076261;28;19920;-76
2023/04/06 11:01:18;;;;;;;;;;;;;;;10.95;35.68;100910.84;5073589;28;19961;-75
2023/04/06 11:03:48;;;;;;;;;;;;;;;10.70;34.24;100917.75;5073260;28;19912;-73
2023/04/06 11:06:23;;;;;;;;;;;;;;;10.44;34.68;100913.63;5073389;28;20014;-74
2023/04/06 11:08:48;;;;;;;;;;;;;;;10.31;34.44;100902.38;5073414;28;19913;-74
2023/04/06 11:11:18;;;;;;;;;;;;;;;10.27;35.67;100903.81;5054898;28;19912;-74
2023/04/06 11:13:56;;;;;;;;;;;;;;;10.34;35.23;100907.13;5072935;28;20366;-77
2023/04/06 11:16:22;;;;;;;;;;;;;;;10.47;35.37;100902.06;5054788;28;19916;-75
2023/04/06 11:18:48;;;;;;;;;;;;;;;10.65;35.65;100909.81;5072982;28;20338;-74
2023/04/06 11:21:14;;;;;;;;;;;;;;;10.78;35.55;100896.13;5072786;28;19920;-73
2023/04/06 11:23:39;;;;;;;;;;;;;;;10.94;36.01;100895.75;5072785;28;19916;-75
2023/04/06 11:26:04;;;;;;;;;;;;;;;10.87;35.76;100890.41;5072695;28;19916;-75
2023/04/06 11:28:30;;;;;;;;;;;;;;;10.96;35.18;100886.72;5054927;28;19919;-75
2023/04/06 11:30:55;;;;;;;;;;;;;;;11.20;35.67;100884.75;5076314;28;19912;-75
2023/04/06 11:33:22;;;;;;;;;;;;;;;11.02;35.21;100884.00;5076738;28;19916;-76
2023/04/06 11:35:47;;;;;;;;;;;;;;;10.88;35.12;100880.53;5076860;28;20385;-75
2023/04/06 11:38:13;;;;;;;;;;;;;;;10.69;34.83;100895.34;5058570;28;19935;-75
2023/04/06 11:40:38;;;;;;;;;;;;;;;10.36;35.18;100881.75;5058434;28;19912;-76
2023/04/06 11:43:03;;;;;;;;;;;;;;;10.46;35.15;100888.25;5054686;28;19921;-74
2023/04/06 11:45:33;;;;;;;;;;;;;;;10.76;35.15;100878.66;5046375;28;19970;-76
2023/04/06 11:47:59;;;;;;;;;;;;;;;10.82;34.69;100882.47;5035803;28;19924;-74
2023/04/06 11:50:44;;;;;;;;;;;;;;;11.19;35.33;100879.50;5032139;28;19968;-76
2023/04/06 11:53:11;;;;;;;;;;;;;;;11.24;35.89;100876.78;5017218;28;19924;-76
2023/04/06 11:55:40;;;;;;;;;;;;;;;11.04;35.63;100870.00;5016272;28;20001;-76
2023/04/06 11:58:06;;;;;;;;;;;;;;;11.05;36.02;100877.31;5024420;28;20251;-75
2023/04/06 12:00:34;;;;;;;;;;;;;;;11.12;36.06;100874.13;5035920;28;19940;-76
2023/04/06 12:03:01;;;;;;;;;;;;;;;11.01;35.19;100882.41;5036305;28;19913;-75
2023/04/06 12:05:26;;;;;;;;;;;;;;;10.76;35.31;100872.97;5034741;28;19920;-75
2023/04/06 12:07:53;;;;;;;;;;;;;;;10.55;35.62;100862.50;5035921;28;20301;-75
2023/04/06 12:10:19;;;;;;;;;;;;;;;10.31;35.27;100861.59;5035441;28;20466;-76
2023/04/06 12:12:45;;;;;;;;;;;;;;;10.21;35.62;100852.25;5036274;28;19913;-76
2023/04/06 12:15:11;;;;;;;;;;;;;;;9.85;35.26;100855.88;5036181;28;20342;-74
2023/04/06 12:17:36;;;;;;;;;;;;;;;9.62;35.71;100853.63;5035695;28;19920;-74
2023/04/06 12:20:02;;;;;;;;;;;;;;;9.60;36.78;100847.56;5030050;28;19914;-70
2023/04/06 12:22:28;;;;;;;;;;;;;;;9.53;36.15;100856.47;5030665;28;20271;-70
2023/04/06 12:24:53;;;;;;;;;;;;;;;9.26;36.39;100835.16;5034762;28;20004;-70
2023/04/06 12:27:19;;;;;;;;;;;;;;;9.24;37.10;100837.69;5035670;28;19928;-70